Aérodrome :
LOGIN :

S'inscrire | Disclaimer

   EN    FR    IT 

 










Légende :    VFR   VFR Marginal   IFR   IFR Intensif   IFR Très Intensif
Visi : 
Plafond : 
>= 8 km
>= 3000ft
5 à 8 km
1000 à 3000 ft
1500m à 5 km
500 à 1000 ft
800 à 1500m
200 à 500 ft
< 800m
< 200 ft
Symboles :   Orages  Brouillard  Fortes neiges  Fortes précipitations  Vent > 20 kt
SIGMETs :   Divers  Orages  Givrage  Turbulence  Onde Orograph.  Cendres Volcan.







- Altitude de l'aérodrome : 124 ft
- Code IATA : NHT
- Voir les cartes d'approche


EGWU - RAF Northolt

DERNIER METAR :
  • 220150Z AUTO 18005KT 9999 // OVC019/// 11/07 Q1030

METARs EXPIRÉS :
  • 220050Z AUTO 19004KT 9999 // OVC021/// 11/08 Q1030
  • 212350Z AUTO 18004KT 9999 // OVC024/// 11/08 Q1030

TAF TAF EGWU
Valide du 21 à 18h jusqu'au 22 à 12h UTC


211647Z 2118/2212 22004KT 9999 BKN020
PROB30 2118/2123 BKN025
TEMPO 2123/2204 SCT010
PROB30 2202/2206 6000 BR BKN006
BECMG 2204/2207 BKN012
BECMG 2209/2212 BKN015
Pas de NOTAMs connus pour ce terrain.



MET'MAP, la Météo Aéronautique d'un coup d'oeil ! - Copyright ORBIFLY Décembre 2007 - Disclaimer

ORBIFLY MET'MAP TEAM :

Programmation & Développement : Alexandra Zaïnal
Conception & Développement : Baudouin d'Aumeries
Co-Programmation & Développement : Marc-Olivier Méhu
Soutien technique & logistique : Manuel Goepfert

Contact : metmap@orbifly.com




SOURCES & CREDITS :

   NOAA